sensor_id;sensor_type;location;lat;lon;timestamp;pressure;altitude;pressure_sealevel;temperature;humidity
11329;BME280;5719;42.714;23.732;2023-12-22T00:01:16;92956.63;;;0.34;88.27
11329;BME280;5719;42.714;23.732;2023-12-22T00:03:43;92954.00;;;0.22;89.07
11329;BME280;5719;42.714;23.732;2023-12-22T00:06:11;92954.25;;;0.17;89.47
11329;BME280;5719;42.714;23.732;2023-12-22T00:08:38;92953.59;;;0.14;90.69
11329;BME280;5719;42.714;23.732;2023-12-22T00:11:05;92943.13;;;0.04;91.38
11329;BME280;5719;42.714;23.732;2023-12-22T00:13:33;92926.56;;;0.13;91.42
11329;BME280;5719;42.714;23.732;2023-12-22T00:16:00;92939.81;;;0.18;91.50
11329;BME280;5719;42.714;23.732;2023-12-22T00:18:27;92944.91;;;0.18;90.91
11329;BME280;5719;42.714;23.732;2023-12-22T00:20:53;92940.19;;;0.26;90.33
11329;BME280;5719;42.714;23.732;2023-12-22T00:23:20;92934.94;;;0.29;91.58
11329;BME280;5719;42.714;23.732;2023-12-22T00:25:47;92923.13;;;0.28;91.28
11329;BME280;5719;42.714;23.732;2023-12-22T00:28:14;92912.06;;;0.29;91.15
11329;BME280;5719;42.714;23.732;2023-12-22T00:30:42;92911.16;;;0.30;91.86
11329;BME280;5719;42.714;23.732;2023-12-22T00:33:09;92895.56;;;0.36;91.17
11329;BME280;5719;42.714;23.732;2023-12-22T00:35:35;92893.03;;;0.36;91.35
11329;BME280;5719;42.714;23.732;2023-12-22T00:38:03;92894.09;;;0.32;92.48
11329;BME280;5719;42.714;23.732;2023-12-22T00:40:30;92897.84;;;-0.04;94.62
11329;BME280;5719;42.714;23.732;2023-12-22T00:42:56;92894.34;;;0.13;94.77
11329;BME280;5719;42.714;23.732;2023-12-22T00:45:23;92885.28;;;0.23;94.51
11329;BME280;5719;42.714;23.732;2023-12-22T00:47:51;92885.75;;;0.30;93.86
11329;BME280;5719;42.714;23.732;2023-12-22T00:50:18;92874.47;;;0.20;93.55
11329;BME280;5719;42.714;23.732;2023-12-22T00:52:45;92878.13;;;0.30;94.30
11329;BME280;5719;42.714;23.732;2023-12-22T00:55:11;92868.31;;;0.10;95.01
11329;BME280;5719;42.714;23.732;2023-12-22T00:57:38;92857.59;;;0.19;95.10
11329;BME280;5719;42.714;23.732;2023-12-22T01:00:06;92856.31;;;0.26;95.13
11329;BME280;5719;42.714;23.732;2023-12-22T01:02:36;92845.44;;;0.38;94.83
11329;BME280;5719;42.714;23.732;2023-12-22T01:05:04;92844.19;;;0.45;93.56
11329;BME280;5719;42.714;23.732;2023-12-22T01:07:31;92847.28;;;0.50;94.14
11329;BME280;5719;42.714;23.732;2023-12-22T01:09:58;92833.47;;;0.54;94.07
11329;BME280;5719;42.714;23.732;2023-12-22T01:12:26;92830.63;;;0.59;93.28
11329;BME280;5719;42.714;23.732;2023-12-22T01:14:53;92839.63;;;0.64;94.22
11329;BME280;5719;42.714;23.732;2023-12-22T01:17:20;92839.00;;;0.61;93.49
11329;BME280;5719;42.714;23.732;2023-12-22T01:19:47;92835.00;;;0.57;94.17
11329;BME280;5719;42.714;23.732;2023-12-22T01:22:15;92843.34;;;0.59;93.58
11329;BME280;5719;42.714;23.732;2023-12-22T01:24:42;92843.06;;;0.63;94.04
11329;BME280;5719;42.714;23.732;2023-12-22T01:27:11;92841.16;;;0.67;95.14
11329;BME280;5719;42.714;23.732;2023-12-22T01:29:38;92833.38;;;0.56;95.19
11329;BME280;5719;42.714;23.732;2023-12-22T01:32:05;92828.63;;;0.64;94.84
11329;BME280;5719;42.714;23.732;2023-12-22T01:34:32;92829.91;;;0.71;95.33
11329;BME280;5719;42.714;23.732;2023-12-22T01:36:59;92819.84;;;0.69;95.14
11329;BME280;5719;42.714;23.732;2023-12-22T01:39:27;92828.38;;;0.68;95.41
11329;BME280;5719;42.714;23.732;2023-12-22T01:41:54;92816.63;;;0.66;95.46
11329;BME280;5719;42.714;23.732;2023-12-22T01:44:21;92809.31;;;0.61;95.67
11329;BME280;5719;42.714;23.732;2023-12-22T01:46:48;92810.41;;;0.57;96.32
11329;BME280;5719;42.714;23.732;2023-12-22T01:49:15;92822.22;;;0.58;95.66
11329;BME280;5719;42.714;23.732;2023-12-22T01:51:42;92823.75;;;0.61;96.14
11329;BME280;5719;42.714;23.732;2023-12-22T01:54:11;92821.72;;;0.66;97.83
11329;BME280;5719;42.714;23.732;2023-12-22T01:56:40;92819.47;;;0.61;98.39
11329;BME280;5719;42.714;23.732;2023-12-22T01:59:08;92810.56;;;0.68;98.88
11329;BME280;5719;42.714;23.732;2023-12-22T02:01:35;92821.09;;;0.62;99.17
11329;BME280;5719;42.714;23.732;2023-12-22T02:04:03;92821.56;;;0.40;100.00
11329;BME280;5719;42.714;23.732;2023-12-22T02:06:32;92814.94;;;0.52;100.00
11329;BME280;5719;42.714;23.732;2023-12-22T02:09:02;92803.41;;;0.61;99.29
11329;BME280;5719;42.714;23.732;2023-12-22T02:11:29;92807.28;;;0.66;98.96
11329;BME280;5719;42.714;23.732;2023-12-22T02:13:57;92813.81;;;0.70;99.05
11329;BME280;5719;42.714;23.732;2023-12-22T02:16:31;92804.91;;;0.77;98.84
11329;BME280;5719;42.714;23.732;2023-12-22T02:19:04;92807.28;;;0.66;99.49
11329;BME280;5719;42.714;23.732;2023-12-22T02:21:36;92804.91;;;0.77;99.01
11329;BME280;5719;42.714;23.732;2023-12-22T02:24:05;92804.47;;;0.71;99.77
11329;BME280;5719;42.714;23.732;2023-12-22T02:26:40;92804.47;;;0.71;99.88
11329;BME280;5719;42.714;23.732;2023-12-22T02:29:10;92801.03;;;0.72;99.87
11329;BME280;5719;42.714;23.732;2023-12-22T02:31:43;92803.91;;;0.80;99.87
11329;BME280;5719;42.714;23.732;2023-12-22T02:34:17;92805.09;;;0.74;100.00
11329;BME280;5719;42.714;23.732;2023-12-22T02:36:45;92801.91;;;0.85;100.00
11329;BME280;5719;42.714;23.732;2023-12-22T02:39:16;92784.09;;;0.85;100.00
11329;BME280;5719;42.714;23.732;2023-12-22T02:41:45;92797.88;;;0.95;100.00
11329;BME280;5719;42.714;23.732;2023-12-22T02:44:12;92800.94;;;1.00;99.91
11329;BME280;5719;42.714;23.732;2023-12-22T02:46:39;92798.94;;;1.05;99.42
11329;BME280;5719;42.714;23.732;2023-12-22T02:49:07;92805.38;;;1.11;99.33
11329;BME280;5719;42.714;23.732;2023-12-22T02:51:34;92801.72;;;1.15;99.10
11329;BME280;5719;42.714;23.732;2023-12-22T02:54:00;92804.97;;;1.17;98.72
11329;BME280;5719;42.714;23.732;2023-12-22T02:56:28;92793.03;;;1.05;99.12
11329;BME280;5719;42.714;23.732;2023-12-22T02:58:55;92789.25;;;0.97;99.35
11329;BME280;5719;42.714;23.732;2023-12-22T03:01:22;92790.19;;;0.82;100.00
11329;BME280;5719;42.714;23.732;2023-12-22T03:03:49;92783.88;;;0.61;100.00
11329;BME280;5719;42.714;23.732;2023-12-22T03:06:14;92770.63;;;0.56;100.00
11329;BME280;5719;42.714;23.732;2023-12-22T03:08:41;92768.06;;;0.70;100.00
11329;BME280;5719;42.714;23.732;2023-12-22T03:11:08;92764.22;;;0.77;100.00
11329;BME280;5719;42.714;23.732;2023-12-22T03:13:36;92766.47;;;0.82;100.00
11329;BME280;5719;42.714;23.732;2023-12-22T03:16:08;92768.56;;;0.89;100.00
11329;BME280;5719;42.714;23.732;2023-12-22T03:18:34;92759.00;;;0.93;100.00
11329;BME280;5719;42.714;23.732;2023-12-22T03:21:01;92760.31;;;0.98;100.00
11329;BME280;5719;42.714;23.732;2023-12-22T03:23:28;92756.19;;;0.97;100.00
11329;BME280;5719;42.714;23.732;2023-12-22T03:25:55;92763.31;;;1.05;100.00
11329;BME280;5719;42.714;23.732;2023-12-22T03:28:21;92749.78;;;1.05;100.00
11329;BME280;5719;42.714;23.732;2023-12-22T03:30:50;92760.72;;;0.92;100.00
11329;BME280;5719;42.714;23.732;2023-12-22T03:33:17;92755.25;;;0.72;100.00
11329;BME280;5719;42.714;23.732;2023-12-22T03:35:44;92745.31;;;0.55;100.00
11329;BME280;5719;42.714;23.732;2023-12-22T03:38:10;92743.41;;;0.44;100.00
11329;BME280;5719;42.714;23.732;2023-12-22T03:40:37;92722.91;;;0.47;100.00
11329;BME280;5719;42.714;23.732;2023-12-22T03:43:04;92721.72;;;0.38;100.00
11329;BME280;5719;42.714;23.732;2023-12-22T03:45:31;92741.44;;;0.35;100.00
11329;BME280;5719;42.714;23.732;2023-12-22T03:47:59;92738.69;;;0.52;100.00
11329;BME280;5719;42.714;23.732;2023-12-22T03:50:26;92735.78;;;0.58;100.00
11329;BME280;5719;42.714;23.732;2023-12-22T03:52:52;92727.38;;;0.70;100.00
11329;BME280;5719;42.714;23.732;2023-12-22T03:55:19;92742.69;;;0.83;100.00
11329;BME280;5719;42.714;23.732;2023-12-22T03:57:46;92740.38;;;0.92;100.00
11329;BME280;5719;42.714;23.732;2023-12-22T04:00:14;92750.41;;;1.08;100.00
11329;BME280;5719;42.714;23.732;2023-12-22T04:02:41;92761.09;;;1.13;100.00
11329;BME280;5719;42.714;23.732;2023-12-22T04:05:12;92750.34;;;1.22;100.00
11329;BME280;5719;42.714;23.732;2023-12-22T04:07:39;92750.63;;;1.18;100.00
11329;BME280;5719;42.714;23.732;2023-12-22T04:10:06;92738.66;;;0.93;100.00
11329;BME280;5719;42.714;23.732;2023-12-22T04:12:33;92739.47;;;0.67;100.00
11329;BME280;5719;42.714;23.732;2023-12-22T04:15:00;92745.56;;;0.64;100.00
11329;BME280;5719;42.714;23.732;2023-12-22T04:17:27;92743.56;;;0.55;100.00
11329;BME280;5719;42.714;23.732;2023-12-22T04:19:53;92740.31;;;0.53;100.00
11329;BME280;5719;42.714;23.732;2023-12-22T04:22:22;92746.88;;;0.70;100.00
11329;BME280;5719;42.714;23.732;2023-12-22T04:24:48;92749.84;;;0.49;100.00
11329;BME280;5719;42.714;23.732;2023-12-22T04:27:15;92738.47;;;0.55;100.00
11329;BME280;5719;42.714;23.732;2023-12-22T04:29:42;92727.16;;;0.73;100.00
11329;BME280;5719;42.714;23.732;2023-12-22T04:32:09;92722.97;;;0.86;100.00
11329;BME280;5719;42.714;23.732;2023-12-22T04:34:36;92717.19;;;0.97;100.00
11329;BME280;5719;42.714;23.732;2023-12-22T04:37:03;92715.50;;;1.10;100.00
11329;BME280;5719;42.714;23.732;2023-12-22T04:39:31;92712.47;;;1.18;100.00
11329;BME280;5719;42.714;23.732;2023-12-22T04:41:57;92716.97;;;1.27;100.00
11329;BME280;5719;42.714;23.732;2023-12-22T04:44:24;92718.91;;;1.36;100.00
11329;BME280;5719;42.714;23.732;2023-12-22T04:46:51;92725.13;;;1.44;100.00
11329;BME280;5719;42.714;23.732;2023-12-22T04:49:18;92720.75;;;1.46;100.00
11329;BME280;5719;42.714;23.732;2023-12-22T04:51:45;92719.63;;;1.51;100.00
11329;BME280;5719;42.714;23.732;2023-12-22T04:54:13;92724.72;;;1.51;100.00
11329;BME280;5719;42.714;23.732;2023-12-22T04:56:41;92720.66;;;1.48;100.00
11329;BME280;5719;42.714;23.732;2023-12-22T04:59:07;92725.13;;;1.44;100.00
11329;BME280;5719;42.714;23.732;2023-12-22T05:01:34;92724.41;;;1.42;100.00
11329;BME280;5719;42.714;23.732;2023-12-22T05:04:01;92711.59;;;1.44;100.00
11329;BME280;5719;42.714;23.732;2023-12-22T05:06:28;92711.78;;;1.54;100.00
11329;BME280;5719;42.714;23.732;2023-12-22T05:08:55;92714.44;;;1.27;100.00
11329;BME280;5719;42.714;23.732;2023-12-22T05:11:22;92712.91;;;1.37;100.00
11329;BME280;5719;42.714;23.732;2023-12-22T05:13:50;92712.19;;;1.35;100.00
11329;BME280;5719;42.714;23.732;2023-12-22T05:16:17;92702.63;;;1.38;100.00
11329;BME280;5719;42.714;23.732;2023-12-22T05:18:44;92710.88;;;1.42;100.00
11329;BME280;5719;42.714;23.732;2023-12-22T05:21:12;92714.44;;;1.39;100.00
11329;BME280;5719;42.714;23.732;2023-12-22T05:23:39;92712.81;;;1.38;100.00
11329;BME280;5719;42.714;23.732;2023-12-22T05:26:06;92725.72;;;1.23;100.00
11329;BME280;5719;42.714;23.732;2023-12-22T05:28:33;92723.47;;;1.18;100.00
11329;BME280;5719;42.714;23.732;2023-12-22T05:31:01;92713.47;;;1.15;100.00
11329;BME280;5719;42.714;23.732;2023-12-22T05:33:28;92721.31;;;1.25;100.00
11329;BME280;5719;42.714;23.732;2023-12-22T05:35:55;92720.22;;;1.29;100.00
11329;BME280;5719;42.714;23.732;2023-12-22T05:38:22;92734.47;;;1.19;100.00
11329;BME280;5719;42.714;23.732;2023-12-22T05:40:48;92723.25;;;1.09;100.00
11329;BME280;5719;42.714;23.732;2023-12-22T05:43:15;92724.69;;;1.13;100.00
11329;BME280;5719;42.714;23.732;2023-12-22T05:45:42;92723.25;;;1.09;100.00
11329;BME280;5719;42.714;23.732;2023-12-22T05:48:10;92723.44;;;1.06;100.00
11329;BME280;5719;42.714;23.732;2023-12-22T05:50:37;92727.72;;;1.05;100.00
11329;BME280;5719;42.714;23.732;2023-12-22T05:53:04;92724.16;;;1.08;100.00
11329;BME280;5719;42.714;23.732;2023-12-22T05:55:30;92734.25;;;1.09;100.00
11329;BME280;5719;42.714;23.732;2023-12-22T05:57:57;92736.47;;;1.14;100.00
11329;BME280;5719;42.714;23.732;2023-12-22T06:00:24;92741.63;;;0.99;100.00
11329;BME280;5719;42.714;23.732;2023-12-22T06:02:51;92737.25;;;1.02;100.00
11329;BME280;5719;42.714;23.732;2023-12-22T06:05:20;92733.00;;;1.15;100.00
11329;BME280;5719;42.714;23.732;2023-12-22T06:07:47;92730.47;;;1.15;100.00
11329;BME280;5719;42.714;23.732;2023-12-22T06:10:14;92731.00;;;1.32;100.00
11329;BME280;5719;42.714;23.732;2023-12-22T06:12:40;92732.88;;;1.43;100.00
11329;BME280;5719;42.714;23.732;2023-12-22T06:15:08;92736.56;;;1.52;100.00
11329;BME280;5719;42.714;23.732;2023-12-22T06:17:35;92735.03;;;1.49;100.00
11329;BME280;5719;42.714;23.732;2023-12-22T06:20:02;92720.47;;;1.51;100.00
11329;BME280;5719;42.714;23.732;2023-12-22T06:22:30;92738.91;;;1.55;100.00
11329;BME280;5719;42.714;23.732;2023-12-22T06:24:58;92744.47;;;1.47;100.00
11329;BME280;5719;42.714;23.732;2023-12-22T06:27:25;92741.34;;;1.56;100.00
11329;BME280;5719;42.714;23.732;2023-12-22T06:29:52;92735.44;;;1.68;100.00
11329;BME280;5719;42.714;23.732;2023-12-22T06:32:21;92742.88;;;1.84;100.00
11329;BME280;5719;42.714;23.732;2023-12-22T06:34:47;92744.53;;;1.85;100.00
11329;BME280;5719;42.714;23.732;2023-12-22T06:37:14;92743.09;;;1.93;100.00
11329;BME280;5719;42.714;23.732;2023-12-22T06:39:43;92735.75;;;2.02;100.00
11329;BME280;5719;42.714;23.732;2023-12-22T06:42:10;92732.91;;;2.06;100.00
11329;BME280;5719;42.714;23.732;2023-12-22T06:44:38;92747.78;;;2.00;100.00
11329;BME280;5719;42.714;23.732;2023-12-22T06:47:05;92744.13;;;1.78;100.00
11329;BME280;5719;42.714;23.732;2023-12-22T06:49:32;92748.38;;;1.90;100.00
11329;BME280;5719;42.714;23.732;2023-12-22T06:51:59;92741.75;;;2.01;100.00
11329;BME280;5719;42.714;23.732;2023-12-22T06:54:26;92753.38;;;2.05;100.00
11329;BME280;5719;42.714;23.732;2023-12-22T06:56:55;92755.31;;;2.14;100.00
11329;BME280;5719;42.714;23.732;2023-12-22T06:59:22;92747.25;;;2.20;100.00
11329;BME280;5719;42.714;23.732;2023-12-22T07:01:49;92752.56;;;2.17;100.00
11329;BME280;5719;42.714;23.732;2023-12-22T07:04:16;92742.53;;;2.26;100.00
11329;BME280;5719;42.714;23.732;2023-12-22T07:06:44;92742.75;;;2.36;100.00
11329;BME280;5719;42.714;23.732;2023-12-22T07:09:31;92746.72;;;2.40;100.00
11329;BME280;5719;42.714;23.732;2023-12-22T07:11:59;92733.25;;;2.38;100.00
11329;BME280;5719;42.714;23.732;2023-12-22T07:14:26;92745.31;;;2.36;100.00
11329;BME280;5719;42.714;23.732;2023-12-22T07:16:53;92736.75;;;2.24;100.00
11329;BME280;5719;42.714;23.732;2023-12-22T07:19:20;92738.91;;;2.18;100.00
11329;BME280;5719;42.714;23.732;2023-12-22T07:21:47;92740.25;;;1.85;100.00
11329;BME280;5719;42.714;23.732;2023-12-22T07:24:15;92746.97;;;1.86;100.00
11329;BME280;5719;42.714;23.732;2023-12-22T07:26:41;92754.00;;;1.95;100.00
11329;BME280;5719;42.714;23.732;2023-12-22T07:29:11;92754.59;;;1.86;100.00
11329;BME280;5719;42.714;23.732;2023-12-22T07:31:37;92752.78;;;1.88;100.00
11329;BME280;5719;42.714;23.732;2023-12-22T07:34:04;92753.09;;;1.96;100.00
11329;BME280;5719;42.714;23.732;2023-12-22T07:36:31;92758.69;;;2.02;100.00
11329;BME280;5719;42.714;23.732;2023-12-22T07:38:58;92754.50;;;2.01;100.00
11329;BME280;5719;42.714;23.732;2023-12-22T07:41:26;92762.66;;;2.06;100.00
11329;BME280;5719;42.714;23.732;2023-12-22T07:43:52;92766.94;;;2.18;100.00
11329;BME280;5719;42.714;23.732;2023-12-22T07:46:21;92765.31;;;2.29;100.00
11329;BME280;5719;42.714;23.732;2023-12-22T07:48:48;92765.28;;;2.42;100.00
11329;BME280;5719;42.714;23.732;2023-12-22T07:51:15;92762.22;;;2.37;100.00
11329;BME280;5719;42.714;23.732;2023-12-22T07:53:42;92763.47;;;2.44;100.00
11329;BME280;5719;42.714;23.732;2023-12-22T07:56:09;92767.47;;;2.59;100.00
11329;BME280;5719;42.714;23.732;2023-12-22T07:58:37;92770.31;;;2.67;100.00
11329;BME280;5719;42.714;23.732;2023-12-22T08:01:04;92770.41;;;2.78;100.00
11329;BME280;5719;42.714;23.732;2023-12-22T08:03:33;92782.53;;;2.87;100.00
11329;BME280;5719;42.714;23.732;2023-12-22T08:06:00;92785.78;;;2.89;100.00
11329;BME280;5719;42.714;23.732;2023-12-22T08:08:27;92781.56;;;3.01;100.00
11329;BME280;5719;42.714;23.732;2023-12-22T08:10:54;92787.75;;;3.10;100.00
11329;BME280;5719;42.714;23.732;2023-12-22T08:13:20;92787.81;;;3.21;100.00
11329;BME280;5719;42.714;23.732;2023-12-22T08:15:48;92792.00;;;3.22;100.00
11329;BME280;5719;42.714;23.732;2023-12-22T08:18:15;92794.72;;;3.31;100.00
11329;BME280;5719;42.714;23.732;2023-12-22T08:20:45;92797.66;;;3.38;100.00
11329;BME280;5719;42.714;23.732;2023-12-22T08:23:14;92795.31;;;3.35;100.00
11329;BME280;5719;42.714;23.732;2023-12-22T08:25:41;92803.59;;;3.38;100.00
11329;BME280;5719;42.714;23.732;2023-12-22T08:28:08;92800.47;;;3.46;100.00
11329;BME280;5719;42.714;23.732;2023-12-22T08:30:35;92806.38;;;3.46;100.00
11329;BME280;5719;42.714;23.732;2023-12-22T08:33:02;92800.94;;;3.51;100.00
11329;BME280;5719;42.714;23.732;2023-12-22T08:35:29;92804.47;;;3.61;100.00
11329;BME280;5719;42.714;23.732;2023-12-22T08:37:57;92804.88;;;3.68;100.00
11329;BME280;5719;42.714;23.732;2023-12-22T08:40:24;92804.41;;;3.74;100.00
11329;BME280;5719;42.714;23.732;2023-12-22T08:42:52;92804.09;;;3.78;100.00
11329;BME280;5719;42.714;23.732;2023-12-22T08:45:25;92794.47;;;3.82;100.00
11329;BME280;5719;42.714;23.732;2023-12-22T08:47:54;92803.41;;;3.87;100.00
11329;BME280;5719;42.714;23.732;2023-12-22T08:50:21;92802.94;;;3.93;100.00
11329;BME280;5719;42.714;23.732;2023-12-22T08:52:48;92804.31;;;3.86;100.00
11329;BME280;5719;42.714;23.732;2023-12-22T08:55:16;92800.25;;;3.84;100.00
11329;BME280;5719;42.714;23.732;2023-12-22T08:57:43;92805.22;;;3.74;100.00
11329;BME280;5719;42.714;23.732;2023-12-22T09:00:11;92809.84;;;3.69;100.00
11329;BME280;5719;42.714;23.732;2023-12-22T09:02:38;92811.00;;;3.65;100.00
11329;BME280;5719;42.714;23.732;2023-12-22T09:05:05;92817.06;;;3.64;100.00
11329;BME280;5719;42.714;23.732;2023-12-22T09:07:32;92821.94;;;3.67;100.00
11329;BME280;5719;42.714;23.732;2023-12-22T09:09:59;92818.25;;;3.71;100.00
11329;BME280;5719;42.714;23.732;2023-12-22T09:12:27;92814.63;;;3.74;100.00
11329;BME280;5719;42.714;23.732;2023-12-22T09:14:54;92819.41;;;3.78;100.00
11329;BME280;5719;42.714;23.732;2023-12-22T09:17:21;92816.41;;;3.84;100.00
11329;BME280;5719;42.714;23.732;2023-12-22T09:19:48;92819.06;;;3.83;100.00
11329;BME280;5719;42.714;23.732;2023-12-22T09:22:15;92814.53;;;3.86;100.00
11329;BME280;5719;42.714;23.732;2023-12-22T09:24:42;92815.94;;;3.90;100.00
11329;BME280;5719;42.714;23.732;2023-12-22T09:27:09;92811.56;;;3.92;100.00
11329;BME280;5719;42.714;23.732;2023-12-22T09:29:37;92818.63;;;3.89;100.00
11329;BME280;5719;42.714;23.732;2023-12-22T09:32:04;92816.44;;;3.95;100.00
11329;BME280;5719;42.714;23.732;2023-12-22T09:34:32;92814.47;;;3.99;100.00
11329;BME280;5719;42.714;23.732;2023-12-22T09:36:59;92820.78;;;4.06;100.00
11329;BME280;5719;42.714;23.732;2023-12-22T09:39:25;92824.97;;;4.07;100.00
11329;BME280;5719;42.714;23.732;2023-12-22T09:41:54;92830.19;;;4.06;100.00
11329;BME280;5719;42.714;23.732;2023-12-22T09:44:21;92826.19;;;3.90;100.00
11329;BME280;5719;42.714;23.732;2023-12-22T09:50:14;92807.06;;;3.72;100.00
11329;BME280;5719;42.714;23.732;2023-12-22T09:52:42;92795.88;;;3.62;100.00
11329;BME280;5719;42.714;23.732;2023-12-22T09:55:11;92797.34;;;3.77;100.00
11329;BME280;5719;42.714;23.732;2023-12-22T09:57:39;92794.31;;;3.83;100.00
11329;BME280;5719;42.714;23.732;2023-12-22T10:00:08;92795.66;;;4.00;100.00
11329;BME280;5719;42.714;23.732;2023-12-22T10:02:41;92786.63;;;4.07;100.00
11329;BME280;5719;42.714;23.732;2023-12-22T10:05:08;92778.69;;;3.99;100.00
11329;BME280;5719;42.714;23.732;2023-12-22T10:07:37;92763.44;;;3.86;100.00
11329;BME280;5719;42.714;23.732;2023-12-22T10:10:05;92779.31;;;3.68;100.00
11329;BME280;5719;42.714;23.732;2023-12-22T10:12:36;92773.38;;;3.67;100.00
11329;BME280;5719;42.714;23.732;2023-12-22T10:15:05;92772.00;;;3.74;100.00
11329;BME280;5719;42.714;23.732;2023-12-22T10:17:34;92759.69;;;3.79;100.00
11329;BME280;5719;42.714;23.732;2023-12-22T10:20:02;92759.06;;;4.00;100.00
11329;BME280;5719;42.714;23.732;2023-12-22T10:22:29;92759.44;;;4.17;100.00
11329;BME280;5719;42.714;23.732;2023-12-22T10:24:57;92770.44;;;4.07;100.00
11329;BME280;5719;42.714;23.732;2023-12-22T10:27:23;92788.06;;;4.33;100.00
11329;BME280;5719;42.714;23.732;2023-12-22T10:29:53;92775.81;;;4.15;100.00
11329;BME280;5719;42.714;23.732;2023-12-22T10:32:21;92778.16;;;3.83;100.00
11329;BME280;5719;42.714;23.732;2023-12-22T10:34:48;92770.38;;;3.73;100.00
11329;BME280;5719;42.714;23.732;2023-12-22T10:37:15;92754.56;;;3.68;100.00
11329;BME280;5719;42.714;23.732;2023-12-22T10:39:42;92754.16;;;3.85;100.00
11329;BME280;5719;42.714;23.732;2023-12-22T10:42:13;92759.06;;;4.00;100.00
11329;BME280;5719;42.714;23.732;2023-12-22T10:44:40;92758.13;;;4.01;100.00
11329;BME280;5719;42.714;23.732;2023-12-22T10:47:07;92753.69;;;3.91;100.00
11329;BME280;5719;42.714;23.732;2023-12-22T10:49:36;92743.31;;;3.71;100.00
11329;BME280;5719;42.714;23.732;2023-12-22T10:52:04;92749.50;;;3.90;100.00
11329;BME280;5719;42.714;23.732;2023-12-22T10:54:31;92720.03;;;4.96;100.00
11329;BME280;5719;42.714;23.732;2023-12-22T10:56:58;92723.41;;;5.08;100.00
11329;BME280;5719;42.714;23.732;2023-12-22T10:59:29;92716.16;;;5.44;100.00
11329;BME280;5719;42.714;23.732;2023-12-22T11:01:57;92705.59;;;5.38;100.00
11329;BME280;5719;42.714;23.732;2023-12-22T11:04:29;92710.81;;;5.36;100.00
11329;BME280;5719;42.714;23.732;2023-12-22T11:06:57;92690.16;;;4.85;100.00
11329;BME280;5719;42.714;23.732;2023-12-22T11:09:26;92708.31;;;4.82;100.00
11329;BME280;5719;42.714;23.732;2023-12-22T11:11:57;92697.88;;;4.63;100.00
11329;BME280;5719;42.714;23.732;2023-12-22T11:14:26;92703.00;;;4.74;100.00
11329;BME280;5719;42.714;23.732;2023-12-22T11:16:56;92690.19;;;4.74;100.00
11329;BME280;5719;42.714;23.732;2023-12-22T11:19:27;92681.63;;;4.53;100.00
11329;BME280;5719;42.714;23.732;2023-12-22T11:21:56;92678.81;;;4.67;100.00
11329;BME280;5719;42.714;23.732;2023-12-22T11:27:55;92675.19;;;5.13;100.00
11329;BME280;5719;42.714;23.732;2023-12-22T11:30:24;92666.56;;;5.14;100.00
11329;BME280;5719;42.714;23.732;2023-12-22T11:32:53;92675.25;;;5.22;100.00
11329;BME280;5719;42.714;23.732;2023-12-22T11:35:21;92680.03;;;5.27;100.00
11329;BME280;5719;42.714;23.732;2023-12-22T11:37:49;92683.72;;;5.34;100.00
11329;BME280;5719;42.714;23.732;2023-12-22T11:40:16;92688.13;;;5.32;100.00
11329;BME280;5719;42.714;23.732;2023-12-22T11:42:47;92685.97;;;5.27;100.00
11329;BME280;5719;42.714;23.732;2023-12-22T11:48:47;92688.94;;;5.32;100.00
11329;BME280;5719;42.714;23.732;2023-12-22T11:51:14;92698.00;;;5.16;100.00
11329;BME280;5719;42.714;23.732;2023-12-22T11:53:43;92692.75;;;5.17;100.00
11329;BME280;5719;42.714;23.732;2023-12-22T11:56:11;92697.44;;;5.12;100.00
11329;BME280;5719;42.714;23.732;2023-12-22T11:58:40;92694.28;;;5.09;100.00
11329;BME280;5719;42.714;23.732;2023-12-22T12:01:09;92703.03;;;5.06;100.00
11329;BME280;5719;42.714;23.732;2023-12-22T12:03:40;92707.53;;;5.14;100.00
11329;BME280;5719;42.714;23.732;2023-12-22T12:06:14;92711.25;;;5.21;100.00
11329;BME280;5719;42.714;23.732;2023-12-22T12:08:42;92705.44;;;5.19;100.00
11329;BME280;5719;42.714;23.732;2023-12-22T12:11:09;92708.53;;;5.33;100.00
11329;BME280;5719;42.714;23.732;2023-12-22T12:13:40;92694.53;;;5.37;100.00
11329;BME280;5719;42.714;23.732;2023-12-22T12:16:08;92699.03;;;5.45;100.00
11329;BME280;5719;42.714;23.732;2023-12-22T12:18:49;92691.34;;;5.45;100.00
11329;BME280;5719;42.714;23.732;2023-12-22T12:21:18;92695.97;;;5.51;100.00
11329;BME280;5719;42.714;23.732;2023-12-22T12:23:44;92689.34;;;5.49;100.00
11329;BME280;5719;42.714;23.732;2023-12-22T12:26:11;92685.97;;;5.48;100.00
11329;BME280;5719;42.714;23.732;2023-12-22T12:28:40;92700.16;;;5.52;100.00
11329;BME280;5719;42.714;23.732;2023-12-22T12:31:10;92706.69;;;5.56;100.00
11329;BME280;5719;42.714;23.732;2023-12-22T12:33:37;92680.13;;;5.57;100.00
11329;BME280;5719;42.714;23.732;2023-12-22T12:36:07;92704.13;;;5.98;100.00
11329;BME280;5719;42.714;23.732;2023-12-22T12:38:40;92710.97;;;5.76;100.00
11329;BME280;5719;42.714;23.732;2023-12-22T12:41:10;92710.41;;;5.73;100.00
11329;BME280;5719;42.714;23.732;2023-12-22T12:43:42;92694.59;;;5.47;100.00
11329;BME280;5719;42.714;23.732;2023-12-22T12:46:09;92705.00;;;5.66;100.00
11329;BME280;5719;42.714;23.732;2023-12-22T12:48:37;92699.47;;;5.50;100.00
11329;BME280;5719;42.714;23.732;2023-12-22T12:51:07;92684.78;;;5.52;100.00
11329;BME280;5719;42.714;23.732;2023-12-22T12:53:36;92684.78;;;5.52;100.00
11329;BME280;5719;42.714;23.732;2023-12-22T12:56:04;92690.16;;;5.49;100.00
11329;BME280;5719;42.714;23.732;2023-12-22T12:58:32;92681.78;;;5.47;100.00
11329;BME280;5719;42.714;23.732;2023-12-22T13:01:07;92692.78;;;5.59;100.00
11329;BME280;5719;42.714;23.732;2023-12-22T13:03:51;92691.56;;;5.53;100.00
11329;BME280;5719;42.714;23.732;2023-12-22T13:06:20;92675.09;;;5.56;100.00
11329;BME280;5719;42.714;23.732;2023-12-22T13:08:48;92685.41;;;5.65;100.00
11329;BME280;5719;42.714;23.732;2023-12-22T13:11:16;92702.22;;;5.58;100.00
11329;BME280;5719;42.714;23.732;2023-12-22T13:13:46;92701.03;;;5.62;100.00
11329;BME280;5719;42.714;23.732;2023-12-22T13:16:17;92708.41;;;5.56;100.00